sensor_id;sensor_type;location;lat;lon;timestamp;temperature;humidity
47434;SHT31;33184;48.774;8.918;2023-08-20T00:03:42;22.18;78.96
47434;SHT31;33184;48.774;8.918;2023-08-20T00:09:04;22.18;79.15
47434;SHT31;33184;48.774;8.918;2023-08-20T00:14:56;22.20;78.82
47434;SHT31;33184;48.774;8.918;2023-08-20T00:20:19;22.15;79.02
47434;SHT31;33184;48.774;8.918;2023-08-20T00:25:40;22.10;79.69
47434;SHT31;33184;48.774;8.918;2023-08-20T00:31:01;21.93;80.37
47434;SHT31;33184;48.774;8.918;2023-08-20T00:36:21;21.94;80.10
47434;SHT31;33184;48.774;8.918;2023-08-20T00:41:42;21.82;80.17
47434;SHT31;33184;48.774;8.918;2023-08-20T00:47:04;21.75;80.15
47434;SHT31;33184;48.774;8.918;2023-08-20T00:52:25;21.63;80.45
47434;SHT31;33184;48.774;8.918;2023-08-20T00:57:46;21.60;80.30
47434;SHT31;33184;48.774;8.918;2023-08-20T01:03:06;21.60;80.41
47434;SHT31;33184;48.774;8.918;2023-08-20T01:08:37;21.60;80.65
47434;SHT31;33184;48.774;8.918;2023-08-20T01:13:59;21.60;81.04
47434;SHT31;33184;48.774;8.918;2023-08-20T01:19:22;21.49;81.34
47434;SHT31;33184;48.774;8.918;2023-08-20T01:30:12;21.36;82.03
47434;SHT31;33184;48.774;8.918;2023-08-20T01:35:33;21.35;82.38
47434;SHT31;33184;48.774;8.918;2023-08-20T01:40:57;21.37;82.49
47434;SHT31;33184;48.774;8.918;2023-08-20T01:46:17;21.37;82.25
47434;SHT31;33184;48.774;8.918;2023-08-20T01:51:39;21.35;81.99
47434;SHT31;33184;48.774;8.918;2023-08-20T01:57:00;21.23;81.85
47434;SHT31;33184;48.774;8.918;2023-08-20T02:02:20;21.15;82.13
47434;SHT31;33184;48.774;8.918;2023-08-20T02:07:41;21.07;82.40
47434;SHT31;33184;48.774;8.918;2023-08-20T02:13:02;20.99;82.62
47434;SHT31;33184;48.774;8.918;2023-08-20T02:18:24;20.95;82.71
47434;SHT31;33184;48.774;8.918;2023-08-20T02:23:44;20.95;82.44
47434;SHT31;33184;48.774;8.918;2023-08-20T02:29:05;20.89;82.70
47434;SHT31;33184;48.774;8.918;2023-08-20T02:34:25;20.94;82.85
47434;SHT31;33184;48.774;8.918;2023-08-20T02:39:46;20.85;82.65
47434;SHT31;33184;48.774;8.918;2023-08-20T02:45:07;20.85;82.47
47434;SHT31;33184;48.774;8.918;2023-08-20T02:50:28;20.82;82.63
47434;SHT31;33184;48.774;8.918;2023-08-20T02:55:48;20.78;82.35
47434;SHT31;33184;48.774;8.918;2023-08-20T03:01:20;20.72;82.36
47434;SHT31;33184;48.774;8.918;2023-08-20T03:06:42;20.59;83.11
47434;SHT31;33184;48.774;8.918;2023-08-20T03:12:04;20.52;83.84
47434;SHT31;33184;48.774;8.918;2023-08-20T03:17:25;20.55;83.65
47434;SHT31;33184;48.774;8.918;2023-08-20T03:22:46;20.51;83.75
47434;SHT31;33184;48.774;8.918;2023-08-20T03:28:08;20.47;83.47
47434;SHT31;33184;48.774;8.918;2023-08-20T03:33:29;20.30;83.78
47434;SHT31;33184;48.774;8.918;2023-08-20T03:38:51;20.28;83.78
47434;SHT31;33184;48.774;8.918;2023-08-20T03:44:11;20.21;83.97
47434;SHT31;33184;48.774;8.918;2023-08-20T03:49:32;20.14;84.03
47434;SHT31;33184;48.774;8.918;2023-08-20T03:54:52;20.10;84.76
47434;SHT31;33184;48.774;8.918;2023-08-20T04:00:13;20.14;84.48
47434;SHT31;33184;48.774;8.918;2023-08-20T04:05:37;20.10;84.27
47434;SHT31;33184;48.774;8.918;2023-08-20T04:10:58;20.01;84.57
47434;SHT31;33184;48.774;8.918;2023-08-20T04:16:18;19.94;85.06
47434;SHT31;33184;48.774;8.918;2023-08-20T04:21:39;19.96;85.26
47434;SHT31;33184;48.774;8.918;2023-08-20T04:27:00;19.99;85.18
47434;SHT31;33184;48.774;8.918;2023-08-20T04:32:22;20.01;84.71
47434;SHT31;33184;48.774;8.918;2023-08-20T04:37:44;19.89;85.16
47434;SHT31;33184;48.774;8.918;2023-08-20T04:43:04;20.00;85.09
47434;SHT31;33184;48.774;8.918;2023-08-20T04:48:25;19.99;85.64
47434;SHT31;33184;48.774;8.918;2023-08-20T04:53:46;19.96;85.89
47434;SHT31;33184;48.774;8.918;2023-08-20T04:59:07;20.00;86.15
47434;SHT31;33184;48.774;8.918;2023-08-20T05:04:46;19.90;85.48
47434;SHT31;33184;48.774;8.918;2023-08-20T05:10:08;19.60;85.56
47434;SHT31;33184;48.774;8.918;2023-08-20T05:15:29;19.70;85.84
47434;SHT31;33184;48.774;8.918;2023-08-20T05:20:50;19.74;85.77
47434;SHT31;33184;48.774;8.918;2023-08-20T05:26:11;19.91;85.79
47434;SHT31;33184;48.774;8.918;2023-08-20T05:31:33;20.09;85.49
47434;SHT31;33184;48.774;8.918;2023-08-20T05:36:55;20.22;85.71
47434;SHT31;33184;48.774;8.918;2023-08-20T05:42:16;20.42;85.52
47434;SHT31;33184;48.774;8.918;2023-08-20T05:47:43;20.59;85.37
47434;SHT31;33184;48.774;8.918;2023-08-20T05:53:03;20.75;85.65
47434;SHT31;33184;48.774;8.918;2023-08-20T05:58:24;20.72;85.67
47434;SHT31;33184;48.774;8.918;2023-08-20T06:03:46;20.82;85.75
47434;SHT31;33184;48.774;8.918;2023-08-20T06:09:06;20.94;85.76
47434;SHT31;33184;48.774;8.918;2023-08-20T06:14:27;21.00;85.75
47434;SHT31;33184;48.774;8.918;2023-08-20T06:19:47;21.10;85.66
47434;SHT31;33184;48.774;8.918;2023-08-20T06:25:08;21.35;85.44
47434;SHT31;33184;48.774;8.918;2023-08-20T06:30:29;21.61;84.97
47434;SHT31;33184;48.774;8.918;2023-08-20T06:35:49;21.75;84.90
47434;SHT31;33184;48.774;8.918;2023-08-20T06:41:10;21.85;85.24
47434;SHT31;33184;48.774;8.918;2023-08-20T06:46:30;22.01;85.40
47434;SHT31;33184;48.774;8.918;2023-08-20T06:51:51;22.10;84.80
47434;SHT31;33184;48.774;8.918;2023-08-20T06:57:12;22.14;84.74
47434;SHT31;33184;48.774;8.918;2023-08-20T07:02:32;22.18;84.73
47434;SHT31;33184;48.774;8.918;2023-08-20T07:07:54;22.26;84.45
47434;SHT31;33184;48.774;8.918;2023-08-20T07:13:14;22.46;84.37
47434;SHT31;33184;48.774;8.918;2023-08-20T07:18:35;22.63;83.96
47434;SHT31;33184;48.774;8.918;2023-08-20T07:23:56;22.77;83.81
47434;SHT31;33184;48.774;8.918;2023-08-20T07:29:17;22.82;83.66
47434;SHT31;33184;48.774;8.918;2023-08-20T07:34:37;23.03;83.90
47434;SHT31;33184;48.774;8.918;2023-08-20T07:39:58;23.26;83.58
47434;SHT31;33184;48.774;8.918;2023-08-20T07:45:19;23.55;82.89
47434;SHT31;33184;48.774;8.918;2023-08-20T07:50:39;23.74;82.29
47434;SHT31;33184;48.774;8.918;2023-08-20T07:56:00;23.73;81.36
47434;SHT31;33184;48.774;8.918;2023-08-20T08:01:21;23.82;81.37
47434;SHT31;33184;48.774;8.918;2023-08-20T08:06:42;24.02;81.09
47434;SHT31;33184;48.774;8.918;2023-08-20T08:12:04;24.16;80.62
47434;SHT31;33184;48.774;8.918;2023-08-20T08:17:25;24.48;80.71
47434;SHT31;33184;48.774;8.918;2023-08-20T08:22:45;24.81;79.89
47434;SHT31;33184;48.774;8.918;2023-08-20T08:28:06;25.03;78.93
47434;SHT31;33184;48.774;8.918;2023-08-20T08:33:27;25.04;78.49
47434;SHT31;33184;48.774;8.918;2023-08-20T08:38:48;25.20;77.90
47434;SHT31;33184;48.774;8.918;2023-08-20T08:44:09;25.33;77.26
47434;SHT31;33184;48.774;8.918;2023-08-20T08:49:38;25.48;77.06
47434;SHT31;33184;48.774;8.918;2023-08-20T08:55:00;25.64;76.60
47434;SHT31;33184;48.774;8.918;2023-08-20T09:00:21;25.82;76.87
47434;SHT31;33184;48.774;8.918;2023-08-20T09:05:49;25.96;75.74
47434;SHT31;33184;48.774;8.918;2023-08-20T09:11:10;26.19;73.71
47434;SHT31;33184;48.774;8.918;2023-08-20T09:16:31;26.37;74.07
47434;SHT31;33184;48.774;8.918;2023-08-20T09:21:52;26.41;73.12
47434;SHT31;33184;48.774;8.918;2023-08-20T09:27:13;26.70;71.96
47434;SHT31;33184;48.774;8.918;2023-08-20T09:32:34;26.84;72.38
47434;SHT31;33184;48.774;8.918;2023-08-20T09:38:03;26.92;69.79
47434;SHT31;33184;48.774;8.918;2023-08-20T09:43:30;27.25;67.53
47434;SHT31;33184;48.774;8.918;2023-08-20T09:48:51;27.26;69.26
47434;SHT31;33184;48.774;8.918;2023-08-20T09:54:35;27.55;67.65
47434;SHT31;33184;48.774;8.918;2023-08-20T09:59:58;27.56;65.43
47434;SHT31;33184;48.774;8.918;2023-08-20T10:05:20;27.66;62.56
47434;SHT31;33184;48.774;8.918;2023-08-20T10:10:42;27.75;61.75
47434;SHT31;33184;48.774;8.918;2023-08-20T10:16:03;27.79;63.15
47434;SHT31;33184;48.774;8.918;2023-08-20T10:21:24;28.14;63.37
47434;SHT31;33184;48.774;8.918;2023-08-20T10:26:46;28.30;61.93
47434;SHT31;33184;48.774;8.918;2023-08-20T10:32:12;28.24;63.08
47434;SHT31;33184;48.774;8.918;2023-08-20T10:37:33;28.58;61.32
47434;SHT31;33184;48.774;8.918;2023-08-20T10:48:11;29.30;59.62
47434;SHT31;33184;48.774;8.918;2023-08-20T11:05:56;30.48;57.32
47434;SHT31;33184;48.774;8.918;2023-08-20T11:11:55;30.32;55.36
